sensor_id;sensor_type;location;lat;lon;timestamp;P1;durP1;ratioP1;P2;durP2;ratioP2
56631;SDS011;42503;39.928;-75.152;2023-03-14T00:07:57;13.95;;;3.22;;
56631;SDS011;42503;39.928;-75.152;2023-03-14T00:17:59;17.05;;;3.05;;
56631;SDS011;42503;39.928;-75.152;2023-03-14T00:28:01;14.40;;;2.95;;
56631;SDS011;42503;39.928;-75.152;2023-03-14T00:38:02;13.38;;;3.25;;
56631;SDS011;42503;39.928;-75.152;2023-03-14T00:48:04;10.98;;;2.70;;
56631;SDS011;42503;39.928;-75.152;2023-03-14T00:58:06;7.55;;;2.95;;
56631;SDS011;42503;39.928;-75.152;2023-03-14T01:08:07;8.95;;;2.20;;
56631;SDS011;42503;39.928;-75.152;2023-03-14T01:18:12;5.25;;;2.40;;
56631;SDS011;42503;39.928;-75.152;2023-03-14T01:28:16;8.43;;;2.20;;
56631;SDS011;42503;39.928;-75.152;2023-03-14T01:38:17;5.88;;;1.77;;
56631;SDS011;42503;39.928;-75.152;2023-03-14T01:48:19;11.52;;;3.47;;
56631;SDS011;42503;39.928;-75.152;2023-03-14T01:58:21;4.20;;;2.20;;
56631;SDS011;42503;39.928;-75.152;2023-03-14T02:08:23;3.30;;;1.83;;
56631;SDS011;42503;39.928;-75.152;2023-03-14T02:18:25;8.13;;;2.25;;
56631;SDS011;42503;39.928;-75.152;2023-03-14T02:28:27;7.47;;;2.60;;
56631;SDS011;42503;39.928;-75.152;2023-03-14T02:49:03;12.65;;;2.35;;
56631;SDS011;42503;39.928;-75.152;2023-03-14T02:59:08;5.57;;;2.38;;
56631;SDS011;42503;39.928;-75.152;2023-03-14T03:09:09;5.97;;;2.33;;
56631;SDS011;42503;39.928;-75.152;2023-03-14T03:19:10;7.45;;;2.72;;
56631;SDS011;42503;39.928;-75.152;2023-03-14T03:29:14;8.70;;;2.50;;
56631;SDS011;42503;39.928;-75.152;2023-03-14T03:39:15;7.15;;;3.00;;
56631;SDS011;42503;39.928;-75.152;2023-03-14T03:49:17;6.93;;;1.98;;
56631;SDS011;42503;39.928;-75.152;2023-03-14T03:59:18;13.10;;;2.55;;
56631;SDS011;42503;39.928;-75.152;2023-03-14T04:09:19;8.80;;;2.53;;
56631;SDS011;42503;39.928;-75.152;2023-03-14T04:19:21;9.15;;;2.78;;
56631;SDS011;42503;39.928;-75.152;2023-03-14T04:29:22;12.10;;;2.63;;
56631;SDS011;42503;39.928;-75.152;2023-03-14T04:39:23;4.70;;;2.53;;
56631;SDS011;42503;39.928;-75.152;2023-03-14T04:49:25;6.07;;;2.75;;
56631;SDS011;42503;39.928;-75.152;2023-03-14T04:59:26;3.67;;;2.38;;
56631;SDS011;42503;39.928;-75.152;2023-03-14T05:09:27;5.97;;;2.30;;
56631;SDS011;42503;39.928;-75.152;2023-03-14T05:19:31;5.22;;;2.22;;
56631;SDS011;42503;39.928;-75.152;2023-03-14T05:29:32;5.32;;;2.40;;
56631;SDS011;42503;39.928;-75.152;2023-03-14T05:39:37;2.33;;;2.08;;
56631;SDS011;42503;39.928;-75.152;2023-03-14T05:49:38;2.45;;;2.10;;
56631;SDS011;42503;39.928;-75.152;2023-03-14T05:59:40;3.90;;;2.45;;
56631;SDS011;42503;39.928;-75.152;2023-03-14T06:09:41;3.25;;;2.45;;
56631;SDS011;42503;39.928;-75.152;2023-03-14T06:19:42;2.45;;;2.20;;
56631;SDS011;42503;39.928;-75.152;2023-03-14T06:29:44;2.75;;;2.10;;
56631;SDS011;42503;39.928;-75.152;2023-03-14T06:39:45;3.53;;;2.22;;
56631;SDS011;42503;39.928;-75.152;2023-03-14T06:49:47;2.33;;;1.90;;
56631;SDS011;42503;39.928;-75.152;2023-03-14T06:59:50;2.17;;;1.90;;
56631;SDS011;42503;39.928;-75.152;2023-03-14T07:09:51;1.83;;;1.63;;
56631;SDS011;42503;39.928;-75.152;2023-03-14T07:19:55;2.55;;;2.35;;
56631;SDS011;42503;39.928;-75.152;2023-03-14T07:29:57;1.80;;;1.70;;
56631;SDS011;42503;39.928;-75.152;2023-03-14T07:39:58;1.90;;;1.70;;
56631;SDS011;42503;39.928;-75.152;2023-03-14T07:49:59;1.92;;;1.80;;
56631;SDS011;42503;39.928;-75.152;2023-03-14T08:00:01;2.63;;;2.22;;
56631;SDS011;42503;39.928;-75.152;2023-03-14T08:10:04;2.22;;;1.75;;
56631;SDS011;42503;39.928;-75.152;2023-03-14T08:20:06;2.10;;;1.85;;
56631;SDS011;42503;39.928;-75.152;2023-03-14T08:30:13;2.10;;;1.90;;
56631;SDS011;42503;39.928;-75.152;2023-03-14T08:40:16;1.50;;;1.40;;
56631;SDS011;42503;39.928;-75.152;2023-03-14T08:50:17;1.45;;;1.35;;
56631;SDS011;42503;39.928;-75.152;2023-03-14T09:00:23;1.67;;;1.50;;
56631;SDS011;42503;39.928;-75.152;2023-03-14T09:10:25;2.50;;;1.42;;
56631;SDS011;42503;39.928;-75.152;2023-03-14T09:20:27;1.38;;;1.27;;
56631;SDS011;42503;39.928;-75.152;2023-03-14T09:30:31;1.27;;;1.17;;
56631;SDS011;42503;39.928;-75.152;2023-03-14T09:40:36;1.20;;;1.10;;
56631;SDS011;42503;39.928;-75.152;2023-03-14T09:50:40;1.15;;;0.98;;
56631;SDS011;42503;39.928;-75.152;2023-03-14T10:00:54;1.08;;;0.98;;
56631;SDS011;42503;39.928;-75.152;2023-03-14T10:10:57;0.82;;;0.82;;
56631;SDS011;42503;39.928;-75.152;2023-03-14T10:21:08;1.00;;;1.00;;
56631;SDS011;42503;39.928;-75.152;2023-03-14T10:31:24;1.02;;;1.00;;
56631;SDS011;42503;39.928;-75.152;2023-03-14T10:41:30;1.27;;;0.90;;
56631;SDS011;42503;39.928;-75.152;2023-03-14T10:51:34;2.13;;;1.20;;
56631;SDS011;42503;39.928;-75.152;2023-03-14T11:11:39;5.38;;;1.30;;
56631;SDS011;42503;39.928;-75.152;2023-03-14T11:32:14;2.15;;;1.40;;
56631;SDS011;42503;39.928;-75.152;2023-03-14T11:42:23;2.50;;;1.45;;
56631;SDS011;42503;39.928;-75.152;2023-03-14T11:52:38;4.75;;;1.50;;
56631;SDS011;42503;39.928;-75.152;2023-03-14T12:02:59;2.50;;;1.30;;
56631;SDS011;42503;39.928;-75.152;2023-03-14T12:13:10;1.40;;;1.30;;
56631;SDS011;42503;39.928;-75.152;2023-03-14T12:23:13;3.97;;;1.50;;
56631;SDS011;42503;39.928;-75.152;2023-03-14T12:43:25;2.00;;;1.50;;
56631;SDS011;42503;39.928;-75.152;2023-03-14T12:53:48;1.40;;;1.23;;
56631;SDS011;42503;39.928;-75.152;2023-03-14T13:03:54;1.92;;;1.40;;
56631;SDS011;42503;39.928;-75.152;2023-03-14T13:14:07;2.35;;;1.73;;
56631;SDS011;42503;39.928;-75.152;2023-03-14T13:24:23;4.13;;;1.42;;
56631;SDS011;42503;39.928;-75.152;2023-03-14T13:34:30;6.25;;;2.17;;
56631;SDS011;42503;39.928;-75.152;2023-03-14T13:44:36;9.27;;;2.20;;
56631;SDS011;42503;39.928;-75.152;2023-03-14T13:54:41;10.57;;;2.92;;
56631;SDS011;42503;39.928;-75.152;2023-03-14T14:04:43;10.85;;;2.80;;
56631;SDS011;42503;39.928;-75.152;2023-03-14T14:14:49;6.93;;;2.20;;
56631;SDS011;42503;39.928;-75.152;2023-03-14T14:24:59;6.65;;;2.17;;
56631;SDS011;42503;39.928;-75.152;2023-03-14T14:35:02;6.15;;;1.85;;
56631;SDS011;42503;39.928;-75.152;2023-03-14T14:45:04;4.00;;;2.20;;
56631;SDS011;42503;39.928;-75.152;2023-03-14T14:55:17;3.20;;;1.90;;
56631;SDS011;42503;39.928;-75.152;2023-03-14T15:05:21;2.97;;;2.05;;
56631;SDS011;42503;39.928;-75.152;2023-03-14T15:15:24;3.78;;;1.60;;
56631;SDS011;42503;39.928;-75.152;2023-03-14T15:25:28;3.28;;;1.85;;
56631;SDS011;42503;39.928;-75.152;2023-03-14T15:35:29;2.38;;;1.73;;
56631;SDS011;42503;39.928;-75.152;2023-03-14T15:45:30;2.63;;;2.00;;
56631;SDS011;42503;39.928;-75.152;2023-03-14T15:55:34;2.33;;;1.85;;
56631;SDS011;42503;39.928;-75.152;2023-03-14T16:05:36;1.95;;;1.50;;
56631;SDS011;42503;39.928;-75.152;2023-03-14T16:15:37;2.53;;;1.60;;
56631;SDS011;42503;39.928;-75.152;2023-03-14T16:25:44;1.73;;;1.60;;
56631;SDS011;42503;39.928;-75.152;2023-03-14T16:35:55;3.00;;;1.70;;
56631;SDS011;42503;39.928;-75.152;2023-03-14T16:46:01;1.60;;;1.50;;
56631;SDS011;42503;39.928;-75.152;2023-03-14T16:56:05;2.75;;;1.35;;
56631;SDS011;42503;39.928;-75.152;2023-03-14T17:06:11;1.40;;;1.30;;
56631;SDS011;42503;39.928;-75.152;2023-03-14T17:16:14;0.90;;;0.90;;
56631;SDS011;42503;39.928;-75.152;2023-03-14T17:26:15;3.17;;;1.02;;
56631;SDS011;42503;39.928;-75.152;2023-03-14T17:36:18;1.08;;;0.95;;
56631;SDS011;42503;39.928;-75.152;2023-03-14T17:46:19;1.00;;;1.00;;
56631;SDS011;42503;39.928;-75.152;2023-03-14T17:56:21;0.82;;;0.80;;
56631;SDS011;42503;39.928;-75.152;2023-03-14T18:06:22;0.80;;;0.70;;
56631;SDS011;42503;39.928;-75.152;2023-03-14T18:16:24;0.77;;;0.70;;
56631;SDS011;42503;39.928;-75.152;2023-03-14T18:26:25;0.70;;;0.70;;
56631;SDS011;42503;39.928;-75.152;2023-03-14T18:36:32;0.68;;;0.68;;
56631;SDS011;42503;39.928;-75.152;2023-03-14T18:46:34;1.08;;;0.60;;
56631;SDS011;42503;39.928;-75.152;2023-03-14T18:56:35;1.15;;;0.70;;
56631;SDS011;42503;39.928;-75.152;2023-03-14T19:06:39;0.70;;;0.63;;
56631;SDS011;42503;39.928;-75.152;2023-03-14T19:16:41;0.68;;;0.68;;
56631;SDS011;42503;39.928;-75.152;2023-03-14T19:26:42;0.60;;;0.60;;
56631;SDS011;42503;39.928;-75.152;2023-03-14T19:36:44;0.88;;;0.70;;
56631;SDS011;42503;39.928;-75.152;2023-03-14T19:46:45;0.63;;;0.63;;
56631;SDS011;42503;39.928;-75.152;2023-03-14T19:56:46;0.47;;;0.47;;
56631;SDS011;42503;39.928;-75.152;2023-03-14T20:06:48;0.50;;;0.50;;
56631;SDS011;42503;39.928;-75.152;2023-03-14T20:16:53;0.50;;;0.50;;
56631;SDS011;42503;39.928;-75.152;2023-03-14T20:26:54;0.82;;;0.60;;
56631;SDS011;42503;39.928;-75.152;2023-03-14T20:36:55;0.95;;;0.73;;
56631;SDS011;42503;39.928;-75.152;2023-03-14T20:46:57;0.68;;;0.65;;
56631;SDS011;42503;39.928;-75.152;2023-03-14T20:57:00;1.30;;;0.70;;
56631;SDS011;42503;39.928;-75.152;2023-03-14T21:07:01;0.75;;;0.75;;
56631;SDS011;42503;39.928;-75.152;2023-03-14T21:17:03;1.08;;;0.77;;
56631;SDS011;42503;39.928;-75.152;2023-03-14T21:27:04;0.50;;;0.50;;
56631;SDS011;42503;39.928;-75.152;2023-03-14T21:37:05;1.02;;;0.60;;
56631;SDS011;42503;39.928;-75.152;2023-03-14T21:47:08;0.98;;;0.70;;
56631;SDS011;42503;39.928;-75.152;2023-03-14T21:57:10;1.90;;;0.57;;
56631;SDS011;42503;39.928;-75.152;2023-03-14T22:07:14;0.60;;;0.60;;
56631;SDS011;42503;39.928;-75.152;2023-03-14T22:17:17;0.40;;;0.40;;
56631;SDS011;42503;39.928;-75.152;2023-03-14T22:27:20;0.88;;;0.70;;
56631;SDS011;42503;39.928;-75.152;2023-03-14T22:37:21;0.63;;;0.60;;
56631;SDS011;42503;39.928;-75.152;2023-03-14T22:47:25;1.00;;;0.70;;
56631;SDS011;42503;39.928;-75.152;2023-03-14T22:57:27;0.70;;;0.70;;
56631;SDS011;42503;39.928;-75.152;2023-03-14T23:07:28;0.77;;;0.75;;
56631;SDS011;42503;39.928;-75.152;2023-03-14T23:17:29;0.70;;;0.60;;
56631;SDS011;42503;39.928;-75.152;2023-03-14T23:27:31;0.70;;;0.70;;
56631;SDS011;42503;39.928;-75.152;2023-03-14T23:37:32;0.63;;;0.60;;
56631;SDS011;42503;39.928;-75.152;2023-03-14T23:47:34;0.50;;;0.50;;
56631;SDS011;42503;39.928;-75.152;2023-03-14T23:57:35;0.73;;;0.60;;
